sensor_id;sensor_type;location;lat;lon;timestamp;P1;durP1;ratioP1;P2;durP2;ratioP2
9280;SDS011;4679;47.966;7.958;2024-02-04T07:55:28;2.77;;;1.80;;
9280;SDS011;4679;47.966;7.958;2024-02-04T07:57:29;3.50;;;2.60;;
9280;SDS011;4679;47.966;7.958;2024-02-04T07:59:31;3.00;;;1.87;;
9280;SDS011;4679;47.966;7.958;2024-02-04T08:01:33;4.17;;;2.60;;
9280;SDS011;4679;47.966;7.958;2024-02-04T08:03:34;3.83;;;2.10;;
9280;SDS011;4679;47.966;7.958;2024-02-04T08:05:37;2.07;;;1.70;;
9280;SDS011;4679;47.966;7.958;2024-02-04T08:07:38;3.53;;;2.70;;
9280;SDS011;4679;47.966;7.958;2024-02-04T08:09:41;2.90;;;2.67;;
9280;SDS011;4679;47.966;7.958;2024-02-04T08:11:44;4.10;;;2.77;;
9280;SDS011;4679;47.966;7.958;2024-02-04T08:13:45;3.33;;;2.57;;
9280;SDS011;4679;47.966;7.958;2024-02-04T08:15:47;5.00;;;2.20;;
9280;SDS011;4679;47.966;7.958;2024-02-04T08:17:48;2.83;;;2.03;;
9280;SDS011;4679;47.966;7.958;2024-02-04T08:19:50;3.07;;;1.60;;
9280;SDS011;4679;47.966;7.958;2024-02-04T08:21:51;2.10;;;1.83;;
9280;SDS011;4679;47.966;7.958;2024-02-04T08:23:53;1.80;;;1.70;;
9280;SDS011;4679;47.966;7.958;2024-02-04T08:25:55;1.50;;;1.40;;
9280;SDS011;4679;47.966;7.958;2024-02-04T08:27:59;3.83;;;3.30;;
9280;SDS011;4679;47.966;7.958;2024-02-04T08:30:00;3.33;;;2.90;;
9280;SDS011;4679;47.966;7.958;2024-02-04T08:32:02;2.10;;;1.30;;
9280;SDS011;4679;47.966;7.958;2024-02-04T08:34:04;2.20;;;1.10;;
9280;SDS011;4679;47.966;7.958;2024-02-04T08:36:07;1.33;;;1.23;;
9280;SDS011;4679;47.966;7.958;2024-02-04T08:38:10;1.50;;;1.40;;
9280;SDS011;4679;47.966;7.958;2024-02-04T08:40:12;1.43;;;1.30;;
9280;SDS011;4679;47.966;7.958;2024-02-04T08:42:14;1.37;;;1.10;;
9280;SDS011;4679;47.966;7.958;2024-02-04T08:44:18;1.10;;;1.00;;
9280;SDS011;4679;47.966;7.958;2024-02-04T08:46:19;1.10;;;0.93;;
9280;SDS011;4679;47.966;7.958;2024-02-04T08:48:21;0.90;;;0.80;;
9280;SDS011;4679;47.966;7.958;2024-02-04T08:50:22;0.80;;;0.80;;
9280;SDS011;4679;47.966;7.958;2024-02-04T08:52:24;1.10;;;0.80;;
9280;SDS011;4679;47.966;7.958;2024-02-04T08:54:26;0.80;;;0.80;;
9280;SDS011;4679;47.966;7.958;2024-02-04T08:56:27;0.80;;;0.80;;
9280;SDS011;4679;47.966;7.958;2024-02-04T08:58:29;2.83;;;0.90;;
9280;SDS011;4679;47.966;7.958;2024-02-04T09:00:32;0.80;;;0.80;;
9280;SDS011;4679;47.966;7.958;2024-02-04T09:02:34;1.00;;;0.87;;
9280;SDS011;4679;47.966;7.958;2024-02-04T09:04:35;2.87;;;1.13;;
9280;SDS011;4679;47.966;7.958;2024-02-04T09:06:40;2.77;;;1.97;;
9280;SDS011;4679;47.966;7.958;2024-02-04T09:08:42;3.23;;;2.40;;
9280;SDS011;4679;47.966;7.958;2024-02-04T09:10:42;2.37;;;1.60;;
9280;SDS011;4679;47.966;7.958;2024-02-04T09:12:45;3.67;;;2.20;;
9280;SDS011;4679;47.966;7.958;2024-02-04T09:14:47;1.10;;;1.00;;
9280;SDS011;4679;47.966;7.958;2024-02-04T09:16:49;1.40;;;0.80;;
9280;SDS011;4679;47.966;7.958;2024-02-04T09:18:50;4.20;;;2.40;;
9280;SDS011;4679;47.966;7.958;2024-02-04T09:20:52;3.70;;;2.27;;
9280;SDS011;4679;47.966;7.958;2024-02-04T09:22:53;3.00;;;1.30;;
9280;SDS011;4679;47.966;7.958;2024-02-04T09:24:54;1.93;;;1.00;;
9280;SDS011;4679;47.966;7.958;2024-02-04T09:26:56;0.80;;;0.70;;
9280;SDS011;4679;47.966;7.958;2024-02-04T09:28:57;1.83;;;0.63;;
9280;SDS011;4679;47.966;7.958;2024-02-04T09:30:59;1.53;;;0.60;;
9280;SDS011;4679;47.966;7.958;2024-02-04T09:33:02;0.40;;;0.40;;
9280;SDS011;4679;47.966;7.958;2024-02-04T09:35:04;1.93;;;0.87;;
9280;SDS011;4679;47.966;7.958;2024-02-04T09:37:05;2.77;;;2.00;;
9280;SDS011;4679;47.966;7.958;2024-02-04T09:39:07;1.67;;;0.50;;
9280;SDS011;4679;47.966;7.958;2024-02-04T09:41:09;0.60;;;0.40;;
9280;SDS011;4679;47.966;7.958;2024-02-04T09:43:10;0.47;;;0.47;;
9280;SDS011;4679;47.966;7.958;2024-02-04T09:45:12;0.30;;;0.23;;
9280;SDS011;4679;47.966;7.958;2024-02-04T09:47:15;0.60;;;0.50;;
9280;SDS011;4679;47.966;7.958;2024-02-04T09:49:18;0.57;;;0.40;;
9280;SDS011;4679;47.966;7.958;2024-02-04T09:51:21;1.20;;;0.23;;
9280;SDS011;4679;47.966;7.958;2024-02-04T09:53:28;1.10;;;0.40;;
9280;SDS011;4679;47.966;7.958;2024-02-04T09:55:33;0.20;;;0.20;;
9280;SDS011;4679;47.966;7.958;2024-02-04T09:57:36;0.97;;;0.20;;
9280;SDS011;4679;47.966;7.958;2024-02-04T09:59:37;0.30;;;0.30;;
9280;SDS011;4679;47.966;7.958;2024-02-04T10:01:38;0.57;;;0.20;;
9280;SDS011;4679;47.966;7.958;2024-02-04T10:03:41;1.80;;;0.50;;
9280;SDS011;4679;47.966;7.958;2024-02-04T10:05:43;0.30;;;0.30;;
9280;SDS011;4679;47.966;7.958;2024-02-04T10:07:45;0.67;;;0.50;;
9280;SDS011;4679;47.966;7.958;2024-02-04T10:09:46;1.27;;;0.50;;
9280;SDS011;4679;47.966;7.958;2024-02-04T10:11:48;2.53;;;0.53;;
9280;SDS011;4679;47.966;7.958;2024-02-04T10:13:49;0.37;;;0.30;;
9280;SDS011;4679;47.966;7.958;2024-02-04T10:15:51;0.53;;;0.50;;
9280;SDS011;4679;47.966;7.958;2024-02-04T10:17:53;0.50;;;0.30;;
9280;SDS011;4679;47.966;7.958;2024-02-04T10:19:55;1.10;;;0.30;;
9280;SDS011;4679;47.966;7.958;2024-02-04T10:21:59;0.57;;;0.30;;
9280;SDS011;4679;47.966;7.958;2024-02-04T10:24:01;1.50;;;0.47;;
9280;SDS011;4679;47.966;7.958;2024-02-04T10:26:03;0.23;;;0.20;;
9280;SDS011;4679;47.966;7.958;2024-02-04T10:28:04;1.17;;;0.47;;
9280;SDS011;4679;47.966;7.958;2024-02-04T10:30:06;1.13;;;0.30;;
9280;SDS011;4679;47.966;7.958;2024-02-04T10:32:08;0.30;;;0.30;;
9280;SDS011;4679;47.966;7.958;2024-02-04T10:34:10;0.30;;;0.30;;
9280;SDS011;4679;47.966;7.958;2024-02-04T10:36:12;1.33;;;0.30;;
9280;SDS011;4679;47.966;7.958;2024-02-04T10:38:15;0.30;;;0.30;;
9280;SDS011;4679;47.966;7.958;2024-02-04T10:40:16;0.47;;;0.30;;
9280;SDS011;4679;47.966;7.958;2024-02-04T10:42:18;0.57;;;0.20;;
9280;SDS011;4679;47.966;7.958;2024-02-04T10:44:24;0.40;;;0.30;;
9280;SDS011;4679;47.966;7.958;2024-02-04T10:46:30;0.40;;;0.40;;
9280;SDS011;4679;47.966;7.958;2024-02-04T10:48:36;0.37;;;0.30;;
9280;SDS011;4679;47.966;7.958;2024-02-04T10:50:42;0.30;;;0.23;;
9280;SDS011;4679;47.966;7.958;2024-02-04T10:52:47;0.20;;;0.20;;
9280;SDS011;4679;47.966;7.958;2024-02-04T10:54:52;1.40;;;0.40;;
9280;SDS011;4679;47.966;7.958;2024-02-04T10:56:55;0.20;;;0.20;;
9280;SDS011;4679;47.966;7.958;2024-02-04T10:58:59;0.60;;;0.50;;
9280;SDS011;4679;47.966;7.958;2024-02-04T11:01:03;0.30;;;0.30;;
9280;SDS011;4679;47.966;7.958;2024-02-04T11:03:06;0.40;;;0.40;;
9280;SDS011;4679;47.966;7.958;2024-02-04T11:05:08;0.30;;;0.30;;
9280;SDS011;4679;47.966;7.958;2024-02-04T11:07:10;0.30;;;0.30;;
9280;SDS011;4679;47.966;7.958;2024-02-04T11:09:13;0.20;;;0.20;;
9280;SDS011;4679;47.966;7.958;2024-02-04T11:11:17;0.33;;;0.30;;
9280;SDS011;4679;47.966;7.958;2024-02-04T11:13:19;0.30;;;0.30;;
9280;SDS011;4679;47.966;7.958;2024-02-04T11:15:22;0.20;;;0.10;;
9280;SDS011;4679;47.966;7.958;2024-02-04T11:17:44;0.87;;;0.20;;
9280;SDS011;4679;47.966;7.958;2024-02-04T11:20:09;0.57;;;0.33;;
9280;SDS011;4679;47.966;7.958;2024-02-04T11:22:28;0.20;;;0.20;;
9280;SDS011;4679;47.966;7.958;2024-02-04T11:24:51;0.30;;;0.30;;
9280;SDS011;4679;47.966;7.958;2024-02-04T11:27:01;1.07;;;0.20;;
9280;SDS011;4679;47.966;7.958;2024-02-04T11:29:04;0.20;;;0.20;;
9280;SDS011;4679;47.966;7.958;2024-02-04T11:31:04;0.40;;;0.20;;
9280;SDS011;4679;47.966;7.958;2024-02-04T11:33:18;0.30;;;0.30;;
9280;SDS011;4679;47.966;7.958;2024-02-04T11:35:21;0.83;;;0.27;;
9280;SDS011;4679;47.966;7.958;2024-02-04T11:37:23;0.97;;;0.30;;
9280;SDS011;4679;47.966;7.958;2024-02-04T11:39:25;0.47;;;0.30;;
9280;SDS011;4679;47.966;7.958;2024-02-04T11:41:27;0.30;;;0.27;;
9280;SDS011;4679;47.966;7.958;2024-02-04T11:43:32;1.00;;;0.20;;
9280;SDS011;4679;47.966;7.958;2024-02-04T11:45:37;0.20;;;0.20;;
9280;SDS011;4679;47.966;7.958;2024-02-04T11:47:40;0.53;;;0.20;;
9280;SDS011;4679;47.966;7.958;2024-02-04T11:49:42;0.10;;;0.10;;
9280;SDS011;4679;47.966;7.958;2024-02-04T11:51:46;1.23;;;0.20;;
9280;SDS011;4679;47.966;7.958;2024-02-04T11:53:49;0.70;;;0.20;;
9280;SDS011;4679;47.966;7.958;2024-02-04T11:55:51;0.27;;;0.10;;
9280;SDS011;4679;47.966;7.958;2024-02-04T11:57:54;0.10;;;0.10;;
9280;SDS011;4679;47.966;7.958;2024-02-04T11:59:57;1.50;;;0.70;;
9280;SDS011;4679;47.966;7.958;2024-02-04T12:02:04;2.23;;;0.47;;
9280;SDS011;4679;47.966;7.958;2024-02-04T12:04:10;0.10;;;0.10;;
9280;SDS011;4679;47.966;7.958;2024-02-04T12:06:12;0.10;;;0.10;;
9280;SDS011;4679;47.966;7.958;2024-02-04T12:08:16;0.57;;;0.10;;
9280;SDS011;4679;47.966;7.958;2024-02-04T12:10:17;0.20;;;0.13;;
9280;SDS011;4679;47.966;7.958;2024-02-04T12:12:19;0.23;;;0.23;;
9280;SDS011;4679;47.966;7.958;2024-02-04T12:14:21;1.07;;;0.23;;
9280;SDS011;4679;47.966;7.958;2024-02-04T12:16:24;0.53;;;0.13;;
9280;SDS011;4679;47.966;7.958;2024-02-04T12:18:26;0.30;;;0.30;;
9280;SDS011;4679;47.966;7.958;2024-02-04T12:20:28;0.20;;;0.20;;
9280;SDS011;4679;47.966;7.958;2024-02-04T12:22:29;0.30;;;0.27;;
9280;SDS011;4679;47.966;7.958;2024-02-04T12:24:32;0.20;;;0.20;;
9280;SDS011;4679;47.966;7.958;2024-02-04T12:26:33;0.20;;;0.20;;
9280;SDS011;4679;47.966;7.958;2024-02-04T12:28:35;0.20;;;0.20;;
9280;SDS011;4679;47.966;7.958;2024-02-04T12:30:37;0.10;;;0.10;;
9280;SDS011;4679;47.966;7.958;2024-02-04T12:32:40;0.20;;;0.20;;
9280;SDS011;4679;47.966;7.958;2024-02-04T12:34:40;0.10;;;0.10;;
9280;SDS011;4679;47.966;7.958;2024-02-04T12:36:42;0.20;;;0.20;;
9280;SDS011;4679;47.966;7.958;2024-02-04T12:38:45;0.50;;;0.20;;
9280;SDS011;4679;47.966;7.958;2024-02-04T12:40:51;0.20;;;0.20;;
9280;SDS011;4679;47.966;7.958;2024-02-04T12:42:54;0.83;;;0.23;;
9280;SDS011;4679;47.966;7.958;2024-02-04T12:44:56;0.20;;;0.20;;
9280;SDS011;4679;47.966;7.958;2024-02-04T12:46:57;0.20;;;0.10;;
9280;SDS011;4679;47.966;7.958;2024-02-04T12:49:00;0.20;;;0.10;;
9280;SDS011;4679;47.966;7.958;2024-02-04T12:51:01;0.10;;;0.10;;
9280;SDS011;4679;47.966;7.958;2024-02-04T12:53:04;0.20;;;0.17;;
9280;SDS011;4679;47.966;7.958;2024-02-04T12:55:06;0.40;;;0.20;;
9280;SDS011;4679;47.966;7.958;2024-02-04T12:57:08;0.20;;;0.20;;
9280;SDS011;4679;47.966;7.958;2024-02-04T12:59:11;0.10;;;0.10;;
9280;SDS011;4679;47.966;7.958;2024-02-04T13:01:23;0.63;;;0.17;;
9280;SDS011;4679;47.966;7.958;2024-02-04T13:03:24;0.10;;;0.10;;
9280;SDS011;4679;47.966;7.958;2024-02-04T13:05:27;0.60;;;0.20;;
9280;SDS011;4679;47.966;7.958;2024-02-04T13:07:30;0.10;;;0.10;;
9280;SDS011;4679;47.966;7.958;2024-02-04T13:09:32;0.10;;;0.10;;
9280;SDS011;4679;47.966;7.958;2024-02-04T13:11:33;0.10;;;0.10;;
9280;SDS011;4679;47.966;7.958;2024-02-04T13:13:35;0.10;;;0.10;;
9280;SDS011;4679;47.966;7.958;2024-02-04T13:15:39;0.60;;;0.13;;
9280;SDS011;4679;47.966;7.958;2024-02-04T13:17:41;0.20;;;0.10;;
9280;SDS011;4679;47.966;7.958;2024-02-04T13:19:42;0.20;;;0.20;;
9280;SDS011;4679;47.966;7.958;2024-02-04T13:21:46;0.20;;;0.10;;
9280;SDS011;4679;47.966;7.958;2024-02-04T13:23:47;0.10;;;0.10;;
9280;SDS011;4679;47.966;7.958;2024-02-04T13:25:49;0.17;;;0.17;;
9280;SDS011;4679;47.966;7.958;2024-02-04T13:27:51;0.30;;;0.20;;
9280;SDS011;4679;47.966;7.958;2024-02-04T13:29:53;0.20;;;0.20;;
9280;SDS011;4679;47.966;7.958;2024-02-04T13:31:54;0.20;;;0.20;;
9280;SDS011;4679;47.966;7.958;2024-02-04T13:33:55;0.10;;;0.10;;
9280;SDS011;4679;47.966;7.958;2024-02-04T13:35:56;0.30;;;0.27;;
9280;SDS011;4679;47.966;7.958;2024-02-04T13:37:59;0.10;;;0.10;;
9280;SDS011;4679;47.966;7.958;2024-02-04T13:40:02;0.10;;;0.10;;
9280;SDS011;4679;47.966;7.958;2024-02-04T13:42:03;0.30;;;0.30;;
9280;SDS011;4679;47.966;7.958;2024-02-04T13:44:05;0.30;;;0.30;;
9280;SDS011;4679;47.966;7.958;2024-02-04T13:46:07;0.47;;;0.10;;
9280;SDS011;4679;47.966;7.958;2024-02-04T13:48:08;0.30;;;0.10;;
9280;SDS011;4679;47.966;7.958;2024-02-04T13:50:10;0.30;;;0.30;;
9280;SDS011;4679;47.966;7.958;2024-02-04T13:52:12;0.20;;;0.17;;
9280;SDS011;4679;47.966;7.958;2024-02-04T13:54:14;0.20;;;0.20;;
9280;SDS011;4679;47.966;7.958;2024-02-04T13:56:17;0.63;;;0.10;;
9280;SDS011;4679;47.966;7.958;2024-02-04T13:58:19;0.20;;;0.20;;
9280;SDS011;4679;47.966;7.958;2024-02-04T14:00:19;0.20;;;0.20;;
9280;SDS011;4679;47.966;7.958;2024-02-04T14:02:21;0.43;;;0.23;;
9280;SDS011;4679;47.966;7.958;2024-02-04T14:04:24;2.17;;;0.10;;
9280;SDS011;4679;47.966;7.958;2024-02-04T14:06:25;0.30;;;0.30;;
9280;SDS011;4679;47.966;7.958;2024-02-04T14:08:27;0.10;;;0.10;;
9280;SDS011;4679;47.966;7.958;2024-02-04T14:10:29;0.10;;;0.10;;
9280;SDS011;4679;47.966;7.958;2024-02-04T14:12:31;0.30;;;0.30;;
9280;SDS011;4679;47.966;7.958;2024-02-04T14:14:33;0.00;;;0.00;;
9280;SDS011;4679;47.966;7.958;2024-02-04T14:16:34;0.20;;;0.20;;
9280;SDS011;4679;47.966;7.958;2024-02-04T14:18:36;0.13;;;0.13;;
9280;SDS011;4679;47.966;7.958;2024-02-04T14:20:38;0.10;;;0.10;;
9280;SDS011;4679;47.966;7.958;2024-02-04T14:22:40;0.10;;;0.10;;
9280;SDS011;4679;47.966;7.958;2024-02-04T14:24:42;0.10;;;0.10;;
9280;SDS011;4679;47.966;7.958;2024-02-04T14:26:46;0.20;;;0.20;;
9280;SDS011;4679;47.966;7.958;2024-02-04T14:28:48;0.60;;;0.30;;
9280;SDS011;4679;47.966;7.958;2024-02-04T14:30:49;0.70;;;0.70;;
9280;SDS011;4679;47.966;7.958;2024-02-04T14:32:51;1.23;;;1.00;;
9280;SDS011;4679;47.966;7.958;2024-02-04T14:34:52;0.20;;;0.20;;
9280;SDS011;4679;47.966;7.958;2024-02-04T14:36:54;0.50;;;0.40;;
9280;SDS011;4679;47.966;7.958;2024-02-04T14:38:55;2.57;;;2.37;;
9280;SDS011;4679;47.966;7.958;2024-02-04T14:40:57;1.63;;;1.00;;
9280;SDS011;4679;47.966;7.958;2024-02-04T14:42:59;0.17;;;0.17;;
9280;SDS011;4679;47.966;7.958;2024-02-04T14:45:02;0.20;;;0.20;;
9280;SDS011;4679;47.966;7.958;2024-02-04T14:47:03;0.53;;;0.27;;
9280;SDS011;4679;47.966;7.958;2024-02-04T14:49:05;0.20;;;0.20;;
9280;SDS011;4679;47.966;7.958;2024-02-04T14:51:07;0.17;;;0.17;;
9280;SDS011;4679;47.966;7.958;2024-02-04T14:53:09;0.50;;;0.43;;
9280;SDS011;4679;47.966;7.958;2024-02-04T14:55:10;0.70;;;0.60;;
9280;SDS011;4679;47.966;7.958;2024-02-04T14:57:12;1.13;;;0.90;;
9280;SDS011;4679;47.966;7.958;2024-02-04T14:59:15;0.93;;;0.60;;
9280;SDS011;4679;47.966;7.958;2024-02-04T15:01:16;0.47;;;0.37;;
9280;SDS011;4679;47.966;7.958;2024-02-04T15:03:18;0.30;;;0.30;;
9280;SDS011;4679;47.966;7.958;2024-02-04T15:05:20;1.27;;;0.50;;
9280;SDS011;4679;47.966;7.958;2024-02-04T15:07:22;0.60;;;0.60;;
9280;SDS011;4679;47.966;7.958;2024-02-04T15:09:23;1.50;;;0.93;;
9280;SDS011;4679;47.966;7.958;2024-02-04T15:11:25;1.77;;;1.00;;
9280;SDS011;4679;47.966;7.958;2024-02-04T15:13:29;1.47;;;0.80;;
9280;SDS011;4679;47.966;7.958;2024-02-04T15:15:33;3.27;;;0.77;;
9280;SDS011;4679;47.966;7.958;2024-02-04T15:17:35;0.20;;;0.13;;
9280;SDS011;4679;47.966;7.958;2024-02-04T15:19:37;0.40;;;0.37;;
9280;SDS011;4679;47.966;7.958;2024-02-04T15:21:38;2.57;;;0.27;;
9280;SDS011;4679;47.966;7.958;2024-02-04T15:23:40;0.30;;;0.30;;
9280;SDS011;4679;47.966;7.958;2024-02-04T15:25:43;0.93;;;0.20;;
9280;SDS011;4679;47.966;7.958;2024-02-04T15:27:45;1.13;;;0.30;;
9280;SDS011;4679;47.966;7.958;2024-02-04T15:29:47;0.77;;;0.30;;
9280;SDS011;4679;47.966;7.958;2024-02-04T15:31:51;1.77;;;0.30;;
9280;SDS011;4679;47.966;7.958;2024-02-04T15:33:53;1.37;;;0.20;;
9280;SDS011;4679;47.966;7.958;2024-02-04T15:35:55;1.03;;;0.50;;
9280;SDS011;4679;47.966;7.958;2024-02-04T15:37:57;0.57;;;0.20;;
9280;SDS011;4679;47.966;7.958;2024-02-04T15:39:59;0.70;;;0.30;;
9280;SDS011;4679;47.966;7.958;2024-02-04T15:42:00;0.43;;;0.30;;
9280;SDS011;4679;47.966;7.958;2024-02-04T15:44:02;0.37;;;0.30;;
9280;SDS011;4679;47.966;7.958;2024-02-04T15:46:06;0.80;;;0.20;;
9280;SDS011;4679;47.966;7.958;2024-02-04T15:48:09;0.27;;;0.20;;
9280;SDS011;4679;47.966;7.958;2024-02-04T15:50:14;0.50;;;0.40;;
9280;SDS011;4679;47.966;7.958;2024-02-04T15:52:17;0.87;;;0.40;;
9280;SDS011;4679;47.966;7.958;2024-02-04T15:54:19;0.50;;;0.40;;
9280;SDS011;4679;47.966;7.958;2024-02-04T15:56:21;1.50;;;0.30;;
9280;SDS011;4679;47.966;7.958;2024-02-04T15:58:28;0.87;;;0.40;;
9280;SDS011;4679;47.966;7.958;2024-02-04T16:00:32;1.13;;;0.60;;
9280;SDS011;4679;47.966;7.958;2024-02-04T16:02:34;0.67;;;0.30;;
9280;SDS011;4679;47.966;7.958;2024-02-04T16:04:38;1.07;;;0.40;;
9280;SDS011;4679;47.966;7.958;2024-02-04T16:06:40;0.40;;;0.30;;
9280;SDS011;4679;47.966;7.958;2024-02-04T16:08:42;0.93;;;0.40;;
9280;SDS011;4679;47.966;7.958;2024-02-04T16:10:44;1.17;;;0.40;;
9280;SDS011;4679;47.966;7.958;2024-02-04T16:12:52;1.17;;;0.43;;
9280;SDS011;4679;47.966;7.958;2024-02-04T16:14:54;0.60;;;0.60;;
9280;SDS011;4679;47.966;7.958;2024-02-04T16:17:01;0.40;;;0.40;;
9280;SDS011;4679;47.966;7.958;2024-02-04T16:19:04;1.43;;;0.67;;
9280;SDS011;4679;47.966;7.958;2024-02-04T16:21:09;2.50;;;0.60;;
9280;SDS011;4679;47.966;7.958;2024-02-04T16:23:10;1.03;;;0.43;;
9280;SDS011;4679;47.966;7.958;2024-02-04T16:25:12;1.77;;;0.60;;
9280;SDS011;4679;47.966;7.958;2024-02-04T16:27:14;0.50;;;0.40;;
9280;SDS011;4679;47.966;7.958;2024-02-04T16:29:15;1.37;;;0.50;;
9280;SDS011;4679;47.966;7.958;2024-02-04T16:31:17;1.17;;;0.80;;
9280;SDS011;4679;47.966;7.958;2024-02-04T16:33:18;0.70;;;0.70;;
9280;SDS011;4679;47.966;7.958;2024-02-04T16:35:21;1.43;;;0.73;;
9280;SDS011;4679;47.966;7.958;2024-02-04T16:37:24;0.40;;;0.40;;
9280;SDS011;4679;47.966;7.958;2024-02-04T16:39:25;1.03;;;0.80;;
9280;SDS011;4679;47.966;7.958;2024-02-04T16:41:26;1.33;;;0.60;;
9280;SDS011;4679;47.966;7.958;2024-02-04T16:43:28;1.23;;;0.80;;
9280;SDS011;4679;47.966;7.958;2024-02-04T16:45:29;0.77;;;0.50;;
9280;SDS011;4679;47.966;7.958;2024-02-04T16:47:31;1.37;;;0.60;;
9280;SDS011;4679;47.966;7.958;2024-02-04T16:49:31;1.20;;;0.70;;
9280;SDS011;4679;47.966;7.958;2024-02-04T16:51:36;2.40;;;1.20;;
9280;SDS011;4679;47.966;7.958;2024-02-04T16:53:40;1.23;;;0.70;;
9280;SDS011;4679;47.966;7.958;2024-02-04T16:55:41;0.60;;;0.60;;
9280;SDS011;4679;47.966;7.958;2024-02-04T16:57:42;0.67;;;0.67;;
9280;SDS011;4679;47.966;7.958;2024-02-04T16:59:44;1.27;;;0.80;;
9280;SDS011;4679;47.966;7.958;2024-02-04T17:01:46;3.30;;;0.70;;
9280;SDS011;4679;47.966;7.958;2024-02-04T17:03:48;1.90;;;1.10;;
9280;SDS011;4679;47.966;7.958;2024-02-04T17:05:51;2.00;;;0.80;;
9280;SDS011;4679;47.966;7.958;2024-02-04T17:07:53;1.17;;;0.97;;
9280;SDS011;4679;47.966;7.958;2024-02-04T17:09:56;1.17;;;0.90;;
9280;SDS011;4679;47.966;7.958;2024-02-04T17:11:58;2.13;;;1.07;;
9280;SDS011;4679;47.966;7.958;2024-02-04T17:14:01;2.87;;;0.93;;
9280;SDS011;4679;47.966;7.958;2024-02-04T17:16:04;1.87;;;1.20;;
9280;SDS011;4679;47.966;7.958;2024-02-04T17:18:26;2.80;;;1.73;;
9280;SDS011;4679;47.966;7.958;2024-02-04T17:20:40;1.83;;;1.70;;
9280;SDS011;4679;47.966;7.958;2024-02-04T17:22:48;1.67;;;1.40;;
9280;SDS011;4679;47.966;7.958;2024-02-04T17:24:52;2.87;;;2.23;;
9280;SDS011;4679;47.966;7.958;2024-02-04T17:26:58;2.43;;;1.70;;
9280;SDS011;4679;47.966;7.958;2024-02-04T17:29:06;2.93;;;1.80;;
9280;SDS011;4679;47.966;7.958;2024-02-04T17:31:09;1.63;;;1.53;;
9280;SDS011;4679;47.966;7.958;2024-02-04T17:33:11;1.80;;;1.70;;
9280;SDS011;4679;47.966;7.958;2024-02-04T17:35:16;1.63;;;1.53;;
9280;SDS011;4679;47.966;7.958;2024-02-04T17:37:20;3.13;;;1.80;;
9280;SDS011;4679;47.966;7.958;2024-02-04T17:39:22;2.13;;;1.70;;
9280;SDS011;4679;47.966;7.958;2024-02-04T17:41:27;1.87;;;1.73;;
9280;SDS011;4679;47.966;7.958;2024-02-04T17:43:30;3.23;;;1.60;;
9280;SDS011;4679;47.966;7.958;2024-02-04T17:45:32;2.97;;;2.00;;
9280;SDS011;4679;47.966;7.958;2024-02-04T17:47:34;2.47;;;1.87;;
9280;SDS011;4679;47.966;7.958;2024-02-04T17:49:36;4.30;;;2.57;;
9280;SDS011;4679;47.966;7.958;2024-02-04T17:51:41;6.10;;;2.13;;
9280;SDS011;4679;47.966;7.958;2024-02-04T17:53:43;2.90;;;1.97;;
9280;SDS011;4679;47.966;7.958;2024-02-04T17:55:44;4.70;;;1.63;;
9280;SDS011;4679;47.966;7.958;2024-02-04T17:57:46;2.23;;;1.77;;
9280;SDS011;4679;47.966;7.958;2024-02-04T17:59:50;3.23;;;1.90;;
9280;SDS011;4679;47.966;7.958;2024-02-04T18:01:51;2.33;;;1.83;;
9280;SDS011;4679;47.966;7.958;2024-02-04T18:03:55;2.90;;;2.70;;
9280;SDS011;4679;47.966;7.958;2024-02-04T18:05:57;2.13;;;2.00;;
9280;SDS011;4679;47.966;7.958;2024-02-04T18:07:59;3.13;;;2.10;;
9280;SDS011;4679;47.966;7.958;2024-02-04T18:10:01;1.97;;;1.77;;
9280;SDS011;4679;47.966;7.958;2024-02-04T18:12:06;4.10;;;1.60;;
9280;SDS011;4679;47.966;7.958;2024-02-04T18:14:08;5.80;;;1.50;;
9280;SDS011;4679;47.966;7.958;2024-02-04T18:16:11;1.53;;;1.43;;
9280;SDS011;4679;47.966;7.958;2024-02-04T18:18:13;3.30;;;1.63;;
9280;SDS011;4679;47.966;7.958;2024-02-04T18:20:15;3.70;;;2.10;;
9280;SDS011;4679;47.966;7.958;2024-02-04T18:22:17;3.50;;;2.90;;
9280;SDS011;4679;47.966;7.958;2024-02-04T18:24:19;3.03;;;2.13;;
9280;SDS011;4679;47.966;7.958;2024-02-04T18:26:21;3.80;;;2.63;;
9280;SDS011;4679;47.966;7.958;2024-02-04T18:28:24;4.63;;;2.50;;
9280;SDS011;4679;47.966;7.958;2024-02-04T18:30:25;2.10;;;1.90;;
9280;SDS011;4679;47.966;7.958;2024-02-04T18:32:29;3.47;;;2.17;;
9280;SDS011;4679;47.966;7.958;2024-02-04T18:34:32;3.00;;;2.67;;
9280;SDS011;4679;47.966;7.958;2024-02-04T18:36:33;3.33;;;3.03;;
9280;SDS011;4679;47.966;7.958;2024-02-04T18:38:36;3.40;;;2.80;;
9280;SDS011;4679;47.966;7.958;2024-02-04T18:40:36;6.67;;;5.70;;
9280;SDS011;4679;47.966;7.958;2024-02-04T18:42:38;10.13;;;5.33;;
9280;SDS011;4679;47.966;7.958;2024-02-04T18:44:40;3.60;;;2.50;;
9280;SDS011;4679;47.966;7.958;2024-02-04T18:46:42;3.80;;;2.20;;
9280;SDS011;4679;47.966;7.958;2024-02-04T18:48:45;2.27;;;1.83;;
9280;SDS011;4679;47.966;7.958;2024-02-04T18:50:47;3.33;;;2.67;;
9280;SDS011;4679;47.966;7.958;2024-02-04T18:52:49;4.33;;;3.13;;
9280;SDS011;4679;47.966;7.958;2024-02-04T18:54:50;4.40;;;2.90;;
9280;SDS011;4679;47.966;7.958;2024-02-04T18:56:52;4.50;;;2.90;;
9280;SDS011;4679;47.966;7.958;2024-02-04T18:58:53;4.60;;;3.63;;
9280;SDS011;4679;47.966;7.958;2024-02-04T19:00:55;2.97;;;2.50;;
9280;SDS011;4679;47.966;7.958;2024-02-04T19:02:57;4.33;;;3.80;;
9280;SDS011;4679;47.966;7.958;2024-02-04T19:05:00;2.57;;;2.30;;
9280;SDS011;4679;47.966;7.958;2024-02-04T19:07:04;3.03;;;2.73;;
9280;SDS011;4679;47.966;7.958;2024-02-04T19:09:07;3.53;;;2.63;;
9280;SDS011;4679;47.966;7.958;2024-02-04T19:11:12;4.93;;;2.67;;
9280;SDS011;4679;47.966;7.958;2024-02-04T19:13:14;2.67;;;2.30;;
9280;SDS011;4679;47.966;7.958;2024-02-04T19:15:16;2.23;;;1.57;;
9280;SDS011;4679;47.966;7.958;2024-02-04T19:17:18;7.00;;;2.07;;
9280;SDS011;4679;47.966;7.958;2024-02-04T19:19:19;2.67;;;2.00;;
9280;SDS011;4679;47.966;7.958;2024-02-04T19:21:23;2.03;;;1.90;;
9280;SDS011;4679;47.966;7.958;2024-02-04T19:23:24;2.60;;;1.93;;
9280;SDS011;4679;47.966;7.958;2024-02-04T19:25:26;4.33;;;1.87;;
9280;SDS011;4679;47.966;7.958;2024-02-04T19:27:27;2.97;;;1.90;;
9280;SDS011;4679;47.966;7.958;2024-02-04T19:29:28;3.80;;;2.30;;
9280;SDS011;4679;47.966;7.958;2024-02-04T19:31:31;3.23;;;2.17;;
9280;SDS011;4679;47.966;7.958;2024-02-04T19:33:33;3.37;;;2.87;;
9280;SDS011;4679;47.966;7.958;2024-02-04T19:35:35;3.97;;;3.60;;
9280;SDS011;4679;47.966;7.958;2024-02-04T19:37:38;3.63;;;3.33;;
9280;SDS011;4679;47.966;7.958;2024-02-04T19:39:40;4.87;;;3.13;;
9280;SDS011;4679;47.966;7.958;2024-02-04T19:41:42;3.80;;;2.60;;
9280;SDS011;4679;47.966;7.958;2024-02-04T19:43:44;4.57;;;3.73;;
9280;SDS011;4679;47.966;7.958;2024-02-04T19:45:46;4.30;;;3.70;;
9280;SDS011;4679;47.966;7.958;2024-02-04T19:47:48;2.90;;;2.70;;
9280;SDS011;4679;47.966;7.958;2024-02-04T19:49:51;3.83;;;2.60;;
9280;SDS011;4679;47.966;7.958;2024-02-04T19:51:55;2.80;;;2.13;;
9280;SDS011;4679;47.966;7.958;2024-02-04T19:54:01;2.80;;;2.20;;
9280;SDS011;4679;47.966;7.958;2024-02-04T19:56:03;3.33;;;2.53;;
9280;SDS011;4679;47.966;7.958;2024-02-04T19:58:05;4.57;;;2.80;;
9280;SDS011;4679;47.966;7.958;2024-02-04T20:00:07;4.17;;;2.47;;
9280;SDS011;4679;47.966;7.958;2024-02-04T20:02:10;2.87;;;2.63;;
9280;SDS011;4679;47.966;7.958;2024-02-04T20:04:12;2.60;;;2.13;;
9280;SDS011;4679;47.966;7.958;2024-02-04T20:06:13;4.40;;;2.00;;
9280;SDS011;4679;47.966;7.958;2024-02-04T20:08:15;2.20;;;2.00;;
9280;SDS011;4679;47.966;7.958;2024-02-04T20:10:18;2.40;;;2.13;;
9280;SDS011;4679;47.966;7.958;2024-02-04T20:12:20;4.30;;;3.10;;
9280;SDS011;4679;47.966;7.958;2024-02-04T20:14:25;2.00;;;1.70;;
9280;SDS011;4679;47.966;7.958;2024-02-04T20:16:27;3.10;;;1.70;;
9280;SDS011;4679;47.966;7.958;2024-02-04T20:18:29;1.70;;;1.60;;
9280;SDS011;4679;47.966;7.958;2024-02-04T20:20:31;2.83;;;1.80;;
9280;SDS011;4679;47.966;7.958;2024-02-04T20:22:31;2.20;;;2.00;;
9280;SDS011;4679;47.966;7.958;2024-02-04T20:24:33;5.43;;;4.03;;
9280;SDS011;4679;47.966;7.958;2024-02-04T20:26:36;2.97;;;2.77;;
9280;SDS011;4679;47.966;7.958;2024-02-04T20:28:38;5.83;;;2.37;;
9280;SDS011;4679;47.966;7.958;2024-02-04T20:30:40;3.13;;;2.10;;
9280;SDS011;4679;47.966;7.958;2024-02-04T20:32:42;2.10;;;1.83;;
9280;SDS011;4679;47.966;7.958;2024-02-04T20:34:44;3.23;;;2.10;;
9280;SDS011;4679;47.966;7.958;2024-02-04T20:36:46;2.93;;;2.40;;